createdAt,value
2018-07-01T00:00:29.555Z,21.72
2018-07-01T00:01:00.775Z,21.75
2018-07-01T00:01:31.972Z,21.74
2018-07-01T00:02:04.387Z,21.71
2018-07-01T00:02:35.660Z,21.70
2018-07-01T00:03:08.017Z,21.70
2018-07-01T00:03:39.986Z,21.69
2018-07-01T00:04:11.270Z,21.67
2018-07-01T00:04:43.441Z,21.67
2018-07-01T00:05:14.706Z,21.66
2018-07-01T00:05:45.904Z,21.65
2018-07-01T00:06:17.113Z,21.64
2018-07-01T00:06:48.283Z,21.63
2018-07-01T00:07:19.501Z,21.61
2018-07-01T00:07:50.705Z,21.63
2018-07-01T00:08:21.964Z,21.65
2018-07-01T00:08:53.217Z,21.68
2018-07-01T00:09:25.020Z,21.69
2018-07-01T00:09:56.244Z,21.68
2018-07-01T00:10:27.440Z,21.68
2018-07-01T00:10:59.185Z,21.70
2018-07-01T00:11:31.506Z,21.72
2018-07-01T00:12:02.685Z,21.72
2018-07-01T00:12:33.893Z,21.73
2018-07-01T00:13:05.092Z,21.74
2018-07-01T00:13:36.300Z,21.76
2018-07-01T00:14:08.308Z,21.77
2018-07-01T00:14:39.548Z,21.80
2018-07-01T00:15:11.794Z,21.82
2018-07-01T00:15:42.984Z,21.83
2018-07-01T00:16:14.282Z,21.88
2018-07-01T00:16:45.525Z,21.91
2018-07-01T00:17:16.756Z,21.90
2018-07-01T00:17:47.933Z,21.92
2018-07-01T00:18:19.157Z,21.95
2018-07-01T00:18:50.368Z,21.98
2018-07-01T00:19:22.281Z,21.98
2018-07-01T00:19:53.457Z,21.93
2018-07-01T00:20:24.677Z,21.90
2018-07-01T00:20:55.920Z,21.88
2018-07-01T00:21:27.188Z,21.87
2018-07-01T00:21:58.369Z,21.86
2018-07-01T00:22:29.548Z,21.87
2018-07-01T00:23:00.775Z,21.90
2018-07-01T00:23:31.980Z,21.88
2018-07-01T00:24:03.189Z,21.85
2018-07-01T00:24:34.386Z,21.85
2018-07-01T00:25:05.569Z,21.82
2018-07-01T00:25:36.820Z,21.82
2018-07-01T00:26:08.070Z,21.81
2018-07-01T00:26:39.884Z,21.75
2018-07-01T00:27:11.053Z,21.74
2018-07-01T00:27:42.319Z,21.70
2018-07-01T00:28:13.555Z,21.68
2018-07-01T00:28:44.794Z,21.67
2018-07-01T00:29:16.045Z,21.65
2018-07-01T00:29:47.292Z,21.67
2018-07-01T00:30:19.620Z,21.67
2018-07-01T00:30:50.856Z,21.67
2018-07-01T00:31:22.042Z,21.68
2018-07-01T00:31:53.216Z,21.67
2018-07-01T00:32:24.388Z,21.67
2018-07-01T00:32:55.616Z,21.66
2018-07-01T00:33:26.880Z,21.63
2018-07-01T00:33:58.140Z,21.60
2018-07-01T00:34:29.365Z,21.58
2018-07-01T00:35:00.552Z,21.56
2018-07-01T00:35:31.723Z,21.54
2018-07-01T00:36:02.908Z,21.53
2018-07-01T00:36:34.092Z,21.53
2018-07-01T00:37:05.313Z,21.50
2018-07-01T00:37:36.533Z,21.46
2018-07-01T00:38:07.717Z,21.43
2018-07-01T00:38:38.887Z,21.42
2018-07-01T00:39:10.054Z,21.42
2018-07-01T00:39:41.233Z,21.42
2018-07-01T00:40:12.402Z,21.39
2018-07-01T00:40:43.609Z,21.37
2018-07-01T00:41:14.829Z,21.35
2018-07-01T00:41:46.009Z,21.32
2018-07-01T00:42:17.216Z,21.30
2018-07-01T00:42:48.396Z,21.28
2018-07-01T00:43:19.625Z,21.23
2018-07-01T00:43:50.852Z,21.22
2018-07-01T00:44:22.034Z,21.18
2018-07-01T00:44:53.264Z,21.14
2018-07-01T00:45:24.509Z,21.16
2018-07-01T00:45:55.755Z,21.13
2018-07-01T00:46:27.058Z,21.12
2018-07-01T00:46:58.705Z,21.11
2018-07-01T00:47:29.925Z,21.10
2018-07-01T00:48:01.131Z,21.10
2018-07-01T00:48:34.514Z,17.91
2018-07-01T00:49:05.701Z,21.09
2018-07-01T00:49:36.880Z,21.09
2018-07-01T00:50:08.064Z,21.11
2018-07-01T00:50:39.236Z,21.13
2018-07-01T00:51:10.409Z,21.16
2018-07-01T00:51:41.703Z,21.17
2018-07-01T00:52:12.897Z,21.22
2018-07-01T00:52:44.146Z,21.24
2018-07-01T00:53:16.297Z,21.27
2018-07-01T00:53:47.529Z,21.27
2018-07-01T00:54:18.773Z,21.28
2018-07-01T00:54:51.246Z,21.29
2018-07-01T00:55:22.422Z,21.29
2018-07-01T00:55:53.655Z,21.30
2018-07-01T00:56:24.878Z,21.28
2018-07-01T00:56:56.129Z,21.28
2018-07-01T00:57:27.533Z,21.27
2018-07-01T00:57:58.720Z,21.29
2018-07-01T00:58:29.928Z,21.29
2018-07-01T00:59:01.132Z,21.28
2018-07-01T00:59:32.308Z,21.28
2018-07-01T01:00:03.549Z,21.26
2018-07-01T01:00:34.817Z,21.26
2018-07-01T01:02:19.204Z,21.24
2018-07-01T01:03:29.993Z,21.21
2018-07-01T01:04:02.914Z,20.91
2018-07-01T01:04:34.180Z,21.20
2018-07-01T01:08:44.281Z,21.30
2018-07-01T01:09:15.495Z,21.32
2018-07-01T01:09:46.745Z,21.32
2018-07-01T01:10:18.641Z,21.31
2018-07-01T01:10:49.860Z,21.33
2018-07-01T01:11:21.141Z,21.35
2018-07-01T01:11:52.335Z,21.35
2018-07-01T01:12:23.580Z,21.36
2018-07-01T01:12:54.770Z,21.37
2018-07-01T01:13:25.961Z,21.38
2018-07-01T01:13:57.202Z,21.41
2018-07-01T01:14:28.393Z,21.41
2018-07-01T01:14:59.572Z,21.41
2018-07-01T01:15:32.505Z,21.39
2018-07-01T01:16:03.690Z,21.38
2018-07-01T01:16:34.949Z,21.33
2018-07-01T01:17:06.146Z,21.32
2018-07-01T01:17:37.350Z,21.31
2018-07-01T01:18:08.521Z,21.30
2018-07-01T01:18:39.745Z,21.28
2018-07-01T01:19:10.993Z,21.29
2018-07-01T01:19:42.221Z,21.30
2018-07-01T01:20:13.500Z,21.31
2018-07-01T01:20:44.716Z,21.31
2018-07-01T01:21:15.932Z,21.29
2018-07-01T01:21:47.200Z,21.28
2018-07-01T01:22:18.407Z,21.29
2018-07-01T01:22:49.651Z,21.26
2018-07-01T01:23:20.922Z,21.27
2018-07-01T01:23:52.117Z,21.27
2018-07-01T01:24:23.293Z,21.28
2018-07-01T01:24:54.517Z,21.28
2018-07-01T01:25:25.809Z,21.27
2018-07-01T01:25:57.041Z,21.29
2018-07-01T01:26:28.293Z,21.31
2018-07-01T01:26:59.552Z,21.32
2018-07-01T01:27:30.764Z,21.35
2018-07-01T01:28:01.987Z,21.35
2018-07-01T01:28:33.189Z,21.33
2018-07-01T01:29:04.368Z,21.30
2018-07-01T01:29:35.545Z,21.26
2018-07-01T01:30:06.752Z,21.24
2018-07-01T01:30:37.989Z,21.20
2018-07-01T01:31:09.173Z,21.18
2018-07-01T01:31:40.348Z,21.21
2018-07-01T01:32:11.535Z,21.22
2018-07-01T01:32:42.709Z,21.24
2018-07-01T01:33:13.881Z,21.23
2018-07-01T01:33:45.097Z,21.21
2018-07-01T01:34:16.371Z,21.15
2018-07-01T01:34:47.624Z,21.14
2018-07-01T01:35:18.841Z,21.10
2018-07-01T01:35:50.260Z,21.06
2018-07-01T01:38:55.883Z,20.78
2018-07-01T01:39:27.163Z,20.73
2018-07-01T01:39:58.361Z,20.72
2018-07-01T01:40:30.264Z,20.71
2018-07-01T01:41:01.535Z,20.71
2018-07-01T01:41:32.728Z,20.72
2018-07-01T01:42:04.273Z,20.72
2018-07-01T01:42:35.572Z,20.73
2018-07-01T01:43:06.775Z,20.73
2018-07-01T01:43:37.950Z,20.73
2018-07-01T01:44:09.185Z,20.74
2018-07-01T01:45:53.832Z,20.78
2018-07-01T01:46:25.124Z,20.83
2018-07-01T01:46:56.379Z,20.85
2018-07-01T01:47:27.620Z,20.88
2018-07-01T01:47:58.852Z,20.88
2018-07-01T01:48:30.050Z,20.90
2018-07-01T01:49:01.217Z,20.91
2018-07-01T01:49:32.473Z,20.91
2018-07-01T01:50:03.677Z,20.91
2018-07-01T01:50:34.913Z,20.91
2018-07-01T01:51:06.481Z,20.90
2018-07-01T01:51:37.732Z,20.87
2018-07-01T01:52:09.010Z,20.85
2018-07-01T01:52:40.219Z,20.84
2018-07-01T01:53:12.218Z,20.83
2018-07-01T01:53:43.408Z,20.82
2018-07-01T01:54:14.633Z,20.84
2018-07-01T01:54:45.824Z,20.83
2018-07-01T01:55:17.066Z,20.83
2018-07-01T01:55:48.313Z,20.83
2018-07-01T01:56:19.560Z,20.83
2018-07-01T01:56:50.757Z,20.82
2018-07-01T01:57:21.961Z,20.81
2018-07-01T01:57:53.202Z,20.80
2018-07-01T01:58:24.395Z,20.79
2018-07-01T01:58:55.605Z,20.80
2018-07-01T01:59:26.773Z,20.79
2018-07-01T01:59:59.218Z,20.81
2018-07-01T02:00:30.397Z,20.82
2018-07-01T02:01:01.621Z,20.84
2018-07-01T02:01:32.818Z,20.83
2018-07-01T02:02:03.995Z,20.84
2018-07-01T02:02:35.171Z,20.88
2018-07-01T02:03:06.356Z,20.90
2018-07-01T02:03:37.608Z,20.91
2018-07-01T02:04:08.844Z,20.92
2018-07-01T02:04:40.037Z,20.93
2018-07-01T02:05:11.218Z,20.91
2018-07-01T02:05:42.392Z,20.91
2018-07-01T02:06:13.646Z,20.89
2018-07-01T02:06:44.824Z,20.90
2018-07-01T02:07:16.008Z,20.92
2018-07-01T02:07:47.193Z,20.91
2018-07-01T02:08:18.427Z,20.90
2018-07-01T02:08:49.619Z,20.91
2018-07-01T02:09:20.862Z,20.90
2018-07-01T02:09:52.048Z,20.89
2018-07-01T02:10:23.268Z,20.88
2018-07-01T02:10:54.500Z,20.86
2018-07-01T02:11:25.706Z,20.84
2018-07-01T02:11:56.891Z,20.82
2018-07-01T02:12:28.149Z,20.81
2018-07-01T02:12:59.411Z,20.79
2018-07-01T02:13:30.649Z,20.78
2018-07-01T02:14:01.845Z,20.78
2018-07-01T02:14:33.073Z,20.78
2018-07-01T02:15:04.314Z,20.76
2018-07-01T02:15:35.561Z,20.77
2018-07-01T02:16:07.730Z,20.76
2018-07-01T02:16:38.948Z,20.76
2018-07-01T02:17:10.160Z,20.76
2018-07-01T02:17:41.342Z,20.76
2018-07-01T02:18:12.512Z,20.77
2018-07-01T02:18:43.700Z,20.76
2018-07-01T02:19:14.863Z,20.77
2018-07-01T02:19:46.040Z,20.78
2018-07-01T02:20:17.237Z,20.81
2018-07-01T02:20:48.505Z,20.81
2018-07-01T02:21:19.952Z,20.84
2018-07-01T02:21:51.129Z,20.88
2018-07-01T02:22:22.320Z,20.94
2018-07-01T02:22:53.593Z,20.97
2018-07-01T02:23:24.796Z,20.98
2018-07-01T02:23:56.042Z,21.02
2018-07-01T02:24:27.248Z,21.04
2018-07-01T02:24:58.473Z,21.06
2018-07-01T02:25:29.680Z,21.05
2018-07-01T02:26:00.948Z,21.05
2018-07-01T02:26:32.184Z,21.04
2018-07-01T02:27:03.376Z,21.01
2018-07-01T02:27:34.601Z,20.98
2018-07-01T02:28:05.863Z,20.97
2018-07-01T02:28:37.111Z,20.95
2018-07-01T02:29:08.346Z,20.94
2018-07-01T02:29:40.280Z,20.91
2018-07-01T02:30:11.513Z,17.29
2018-07-01T02:30:42.696Z,20.70
2018-07-01T02:31:13.892Z,20.84
2018-07-01T02:31:45.853Z,20.83
2018-07-01T02:32:17.108Z,20.83
2018-07-01T02:32:48.494Z,20.80
2018-07-01T02:33:20.296Z,20.77
2018-07-01T02:33:52.329Z,20.75
2018-07-01T02:34:23.626Z,20.72
2018-07-01T02:34:54.952Z,20.69
2018-07-01T02:35:26.319Z,20.70
2018-07-01T02:35:57.643Z,20.67
2018-07-01T02:36:28.925Z,20.66
2018-07-01T02:37:00.350Z,20.67
2018-07-01T02:37:31.753Z,20.66
2018-07-01T02:38:02.996Z,20.65
2018-07-01T02:38:34.292Z,20.65
2018-07-01T02:39:05.588Z,20.64
2018-07-01T02:39:36.917Z,20.66
2018-07-01T02:40:08.263Z,20.67
2018-07-01T02:40:39.641Z,20.66
2018-07-01T02:41:10.987Z,20.65
2018-07-01T02:41:42.488Z,20.65
2018-07-01T02:42:13.842Z,20.62
2018-07-01T02:42:45.251Z,20.61
2018-07-01T02:43:16.601Z,20.62
2018-07-01T02:43:47.994Z,20.63
2018-07-01T02:44:19.276Z,20.63
2018-07-01T02:44:50.686Z,20.63
2018-07-01T02:45:21.991Z,20.62
2018-07-01T02:45:53.295Z,20.60
2018-07-01T02:46:24.592Z,20.56
2018-07-01T02:46:55.950Z,20.55
2018-07-01T02:47:27.232Z,20.54
2018-07-01T02:47:58.446Z,20.52
2018-07-01T02:48:29.794Z,20.48
2018-07-01T02:49:01.142Z,20.47
2018-07-01T02:49:32.521Z,20.47
2018-07-01T02:50:03.789Z,20.45
2018-07-01T02:50:35.371Z,20.44
2018-07-01T02:51:06.671Z,20.42
2018-07-01T02:51:37.977Z,20.44
2018-07-01T02:52:09.285Z,20.43
2018-07-01T02:52:40.577Z,20.42
2018-07-01T02:53:11.924Z,20.42
2018-07-01T02:53:43.321Z,20.41
2018-07-01T02:54:14.687Z,20.38
2018-07-01T02:54:45.993Z,20.36
2018-07-01T02:55:17.301Z,20.33
2018-07-01T02:55:48.676Z,20.34
2018-07-01T02:56:20.025Z,20.32
2018-07-01T02:56:51.301Z,20.31
2018-07-01T02:57:22.614Z,20.30
2018-07-01T02:57:53.949Z,20.30
2018-07-01T02:58:25.188Z,20.28
2018-07-01T02:58:56.446Z,20.29
2018-07-01T02:59:27.912Z,20.30
2018-07-01T02:59:59.219Z,20.29
2018-07-01T03:00:30.505Z,20.29
2018-07-01T03:01:01.777Z,20.28
2018-07-01T03:01:33.053Z,20.29
2018-07-01T03:02:04.285Z,20.29
2018-07-01T03:02:35.469Z,20.30
2018-07-01T03:03:06.669Z,20.33
2018-07-01T03:03:37.878Z,20.35
2018-07-01T03:04:09.122Z,20.38
2018-07-01T03:04:40.364Z,20.45
2018-07-01T03:05:11.624Z,20.54
2018-07-01T03:05:42.868Z,20.62
2018-07-01T03:06:14.057Z,20.72
2018-07-01T03:06:45.238Z,20.80
2018-07-01T03:07:16.473Z,20.87
2018-07-01T03:07:47.665Z,20.94
2018-07-01T03:08:18.849Z,21.00
2018-07-01T03:08:50.076Z,21.03
2018-07-01T03:09:21.305Z,21.06
2018-07-01T03:09:52.539Z,21.14
2018-07-01T03:10:23.731Z,21.20
2018-07-01T03:10:54.927Z,21.25
2018-07-01T03:11:26.114Z,21.27
2018-07-01T03:11:57.305Z,21.31
2018-07-01T03:12:28.545Z,21.33
2018-07-01T03:12:59.802Z,21.27
2018-07-01T03:13:30.994Z,21.23
2018-07-01T03:14:02.174Z,21.16
2018-07-01T03:14:33.403Z,21.10
2018-07-01T03:15:04.576Z,21.02
2018-07-01T03:15:35.753Z,20.97
2018-07-01T03:16:06.993Z,21.00
2018-07-01T03:16:38.185Z,21.07
2018-07-01T03:17:09.421Z,21.17
2018-07-01T03:17:40.638Z,21.26
2018-07-01T03:18:11.826Z,21.34
2018-07-01T03:18:43.056Z,21.42
2018-07-01T03:19:14.314Z,21.49
2018-07-01T03:19:45.561Z,21.60
2018-07-01T03:20:16.748Z,21.71
2018-07-01T03:20:48.008Z,21.77
2018-07-01T03:21:19.237Z,21.85
2018-07-01T03:21:50.434Z,21.91
2018-07-01T03:22:21.653Z,21.97
2018-07-01T03:22:52.833Z,22.08
2018-07-01T03:23:24.061Z,22.18
2018-07-01T03:23:55.244Z,22.26
2018-07-01T03:24:26.414Z,22.40
2018-07-01T03:24:57.647Z,22.52
2018-07-01T03:25:28.885Z,22.57
2018-07-01T03:26:00.062Z,22.48
2018-07-01T03:26:31.289Z,22.37
2018-07-01T03:27:02.555Z,22.33
2018-07-01T03:27:33.744Z,22.30
2018-07-01T03:28:04.931Z,22.29
2018-07-01T03:28:36.113Z,22.26
2018-07-01T03:29:07.337Z,22.19
2018-07-01T03:29:38.577Z,22.08
2018-07-01T03:30:09.822Z,21.88
2018-07-01T03:30:41.000Z,21.72
2018-07-01T03:31:12.221Z,21.58
2018-07-01T03:31:43.428Z,21.44
2018-07-01T03:32:14.608Z,21.35
2018-07-01T03:32:45.784Z,21.24
2018-07-01T03:33:16.958Z,21.13
2018-07-01T03:33:48.137Z,21.09
2018-07-01T03:34:19.308Z,21.06
2018-07-01T03:34:50.493Z,21.03
2018-07-01T03:35:21.672Z,21.00
2018-07-01T03:35:52.905Z,20.98
2018-07-01T03:36:24.145Z,20.98
2018-07-01T03:36:55.420Z,21.02
2018-07-01T03:37:26.607Z,21.11
2018-07-01T03:37:57.832Z,21.13
2018-07-01T03:38:29.064Z,21.15
2018-07-01T03:39:00.248Z,21.16
2018-07-01T03:39:31.421Z,21.20
2018-07-01T03:40:02.664Z,21.25
2018-07-01T03:40:33.900Z,21.37
2018-07-01T03:41:05.132Z,21.53
2018-07-01T03:41:36.348Z,21.77
2018-07-01T03:42:07.533Z,22.02
2018-07-01T03:42:38.711Z,22.26
2018-07-01T03:43:09.890Z,22.53
2018-07-01T03:43:41.071Z,22.80
2018-07-01T03:44:12.346Z,23.00
2018-07-01T03:44:43.540Z,23.22
2018-07-01T03:45:14.719Z,23.43
2018-07-01T03:45:45.946Z,23.54
2018-07-01T03:46:17.213Z,23.67
2018-07-01T03:46:48.442Z,23.70
2018-07-01T03:47:19.637Z,23.77
2018-07-01T03:47:50.895Z,23.85
2018-07-01T03:48:22.076Z,23.96
2018-07-01T03:48:53.248Z,24.10
2018-07-01T03:49:24.407Z,24.24
2018-07-01T03:49:55.577Z,24.40
2018-07-01T03:50:26.845Z,24.54
2018-07-01T03:50:58.077Z,24.57
2018-07-01T03:51:29.317Z,24.59
2018-07-01T03:52:00.545Z,24.51
2018-07-01T03:52:31.765Z,24.52
2018-07-01T03:53:02.996Z,24.58
2018-07-01T03:53:34.224Z,24.60
2018-07-01T03:54:05.461Z,24.61
2018-07-01T03:54:36.691Z,24.62
2018-07-01T03:55:07.865Z,24.44
2018-07-01T03:55:39.089Z,24.19
2018-07-01T03:56:10.356Z,24.02
2018-07-01T03:56:41.552Z,23.80
2018-07-01T03:57:12.724Z,23.69
2018-07-01T03:57:43.926Z,23.55
2018-07-01T03:58:15.174Z,23.45
2018-07-01T03:58:46.354Z,23.32
2018-07-01T03:59:17.552Z,23.18
2018-07-01T03:59:48.728Z,23.04
2018-07-01T04:00:19.899Z,22.89
2018-07-01T04:00:51.073Z,22.76
2018-07-01T04:01:22.333Z,22.75
2018-07-01T04:01:53.602Z,22.80
2018-07-01T04:02:24.785Z,22.92
2018-07-01T04:02:56.018Z,23.11
2018-07-01T04:03:27.221Z,23.28
2018-07-01T04:03:58.396Z,23.38
2018-07-01T04:04:29.571Z,23.60
2018-07-01T04:05:00.766Z,23.85
2018-07-01T04:05:32.026Z,24.00
2018-07-01T04:06:03.209Z,24.16
2018-07-01T04:06:34.635Z,24.29
2018-07-01T04:07:05.805Z,24.33
2018-07-01T04:07:37.034Z,24.28
2018-07-01T04:08:08.262Z,24.20
2018-07-01T04:08:39.440Z,24.10
2018-07-01T04:09:10.605Z,23.92
2018-07-01T04:09:41.788Z,23.73
2018-07-01T04:10:13.017Z,23.60
2018-07-01T04:10:44.253Z,23.51
2018-07-01T04:11:15.488Z,23.36
2018-07-01T04:11:47.980Z,23.24
2018-07-01T04:12:19.184Z,23.28
2018-07-01T04:12:50.368Z,23.39
2018-07-01T04:13:25.272Z,23.52
2018-07-01T04:13:56.514Z,23.69
2018-07-01T04:14:27.769Z,23.91
2018-07-01T04:15:00.274Z,24.17
2018-07-01T04:15:35.837Z,24.39
2018-07-01T04:16:07.010Z,24.53
2018-07-01T04:16:38.225Z,24.61
2018-07-01T04:17:09.385Z,24.58
2018-07-01T04:17:40.556Z,24.49
2018-07-01T04:18:11.772Z,24.29
2018-07-01T04:18:43.000Z,23.99
2018-07-01T04:19:14.224Z,23.75
2018-07-01T04:19:45.397Z,23.60
2018-07-01T04:20:16.569Z,23.58
2018-07-01T04:20:47.741Z,23.62
2018-07-01T04:21:20.478Z,23.69
2018-07-01T04:21:51.656Z,23.85
2018-07-01T04:22:22.906Z,24.07
2018-07-01T04:22:54.090Z,24.21
2018-07-01T04:23:25.261Z,24.21
2018-07-01T04:23:56.432Z,24.13
2018-07-01T04:24:27.636Z,24.04
2018-07-01T04:24:58.810Z,23.93
2018-07-01T04:25:30.029Z,23.80
2018-07-01T04:26:01.208Z,23.61
2018-07-01T04:26:32.380Z,23.50
2018-07-01T04:27:03.603Z,23.42
2018-07-01T04:27:34.893Z,23.40
2018-07-01T04:28:06.109Z,23.54
2018-07-01T04:28:37.272Z,23.76
2018-07-01T04:29:08.452Z,24.04
2018-07-01T04:29:39.677Z,24.23
2018-07-01T04:30:10.896Z,24.31
2018-07-01T04:30:42.115Z,24.23
2018-07-01T04:31:13.400Z,24.13
2018-07-01T04:31:44.537Z,24.00
2018-07-01T04:32:15.762Z,23.94
2018-07-01T04:32:47.020Z,23.88
2018-07-01T04:33:18.198Z,23.92
2018-07-01T04:33:49.425Z,24.07
2018-07-01T04:34:20.601Z,24.23
2018-07-01T04:34:51.861Z,24.47
2018-07-01T04:35:23.056Z,24.62
2018-07-01T04:35:54.220Z,24.68
2018-07-01T04:36:25.453Z,24.86
2018-07-01T04:36:56.628Z,24.99
2018-07-01T04:37:27.800Z,25.15
2018-07-01T04:37:58.983Z,25.25
2018-07-01T04:38:30.210Z,25.25
2018-07-01T04:39:01.392Z,25.14
2018-07-01T04:39:32.608Z,24.92
2018-07-01T04:40:03.837Z,24.64
2018-07-01T04:40:35.018Z,24.39
2018-07-01T04:41:06.185Z,24.23
2018-07-01T04:41:37.364Z,24.13
2018-07-01T04:42:08.537Z,24.10
2018-07-01T04:42:39.722Z,24.15
2018-07-01T04:43:10.885Z,24.15
2018-07-01T04:43:42.055Z,24.16
2018-07-01T04:44:13.257Z,24.10
2018-07-01T04:44:44.443Z,24.10
2018-07-01T04:45:15.619Z,24.10
2018-07-01T04:45:46.789Z,24.19
2018-07-01T04:46:18.056Z,24.41
2018-07-01T04:46:49.295Z,24.67
2018-07-01T04:47:20.549Z,24.81
2018-07-01T04:47:53.497Z,24.99
2018-07-01T04:48:24.668Z,25.09
2018-07-01T04:49:02.130Z,25.09
2018-07-01T04:49:33.365Z,25.04
2018-07-01T04:50:04.581Z,24.91
2018-07-01T04:50:35.799Z,24.72
2018-07-01T04:51:06.981Z,24.51
2018-07-01T04:51:38.150Z,24.31
2018-07-01T04:52:09.369Z,24.09
2018-07-01T04:52:40.545Z,23.98
2018-07-01T04:53:11.720Z,23.81
2018-07-01T04:53:42.886Z,23.62
2018-07-01T04:54:14.053Z,23.44
2018-07-01T04:54:45.234Z,23.38
2018-07-01T04:55:16.495Z,23.32
2018-07-01T04:55:47.663Z,23.33
2018-07-01T04:56:18.844Z,23.36
2018-07-01T04:56:50.025Z,23.40
2018-07-01T04:57:21.204Z,23.50
2018-07-01T04:57:52.493Z,23.69
2018-07-01T04:58:23.721Z,23.91
2018-07-01T04:58:54.912Z,24.11
2018-07-01T04:59:26.084Z,24.32
2018-07-01T04:59:57.320Z,24.47
2018-07-01T05:00:28.498Z,24.64
2018-07-01T05:00:59.667Z,24.75
2018-07-01T05:01:30.900Z,24.69
2018-07-01T05:02:02.113Z,24.59
2018-07-01T05:02:33.353Z,24.53
2018-07-01T05:03:04.504Z,24.49
2018-07-01T05:03:35.681Z,24.42
2018-07-01T05:04:06.877Z,24.38
2018-07-01T05:04:38.056Z,24.38
2018-07-01T05:05:09.337Z,24.51
2018-07-01T05:05:40.568Z,24.65
2018-07-01T05:06:11.744Z,24.78
2018-07-01T05:06:42.964Z,24.96
2018-07-01T05:07:14.209Z,25.31
2018-07-01T05:07:45.461Z,25.66
2018-07-01T05:08:16.685Z,25.96
2018-07-01T05:08:47.868Z,26.31
2018-07-01T05:09:19.040Z,26.67
2018-07-01T05:09:50.224Z,27.05
2018-07-01T05:10:21.400Z,27.16
2018-07-01T05:10:52.667Z,27.27
2018-07-01T05:11:23.844Z,27.44
2018-07-01T05:11:55.017Z,27.49
2018-07-01T05:12:26.193Z,27.66
2018-07-01T05:12:57.364Z,27.79
2018-07-01T05:13:28.534Z,27.85
2018-07-01T05:13:59.752Z,28.01
2018-07-01T05:14:30.929Z,27.86
2018-07-01T05:15:02.169Z,27.91
2018-07-01T05:15:33.401Z,27.97
2018-07-01T05:16:04.593Z,28.24
2018-07-01T05:16:35.818Z,28.45
2018-07-01T05:17:07.073Z,28.42
2018-07-01T05:17:38.285Z,28.23
2018-07-01T05:18:09.464Z,28.00
2018-07-01T05:18:40.686Z,28.03
2018-07-01T05:19:11.871Z,28.06
2018-07-01T05:19:43.049Z,27.98
2018-07-01T05:20:14.235Z,27.90
2018-07-01T05:20:45.412Z,27.91
2018-07-01T05:21:16.682Z,27.91
2018-07-01T05:21:47.884Z,28.01
2018-07-01T05:22:19.118Z,27.98
2018-07-01T05:22:50.370Z,27.98
2018-07-01T05:23:21.570Z,28.16
2018-07-01T05:23:52.817Z,28.20
2018-07-01T05:24:24.013Z,28.20
2018-07-01T05:24:55.213Z,28.23
2018-07-01T05:25:26.480Z,28.40
2018-07-01T05:25:57.668Z,28.50
2018-07-01T05:26:28.901Z,28.70
2018-07-01T05:27:00.154Z,28.80
2018-07-01T05:27:31.433Z,28.97
2018-07-01T05:28:02.633Z,29.31
2018-07-01T05:28:33.821Z,29.55
2018-07-01T05:29:05.009Z,29.61
2018-07-01T05:29:36.193Z,29.46
2018-07-01T05:30:07.429Z,29.31
2018-07-01T05:30:38.715Z,28.83
2018-07-01T05:31:09.913Z,28.53
2018-07-01T05:31:41.149Z,28.38
2018-07-01T05:32:12.362Z,28.18
2018-07-01T05:32:43.593Z,28.20
2018-07-01T05:33:14.825Z,28.10
2018-07-01T05:33:46.094Z,28.17
2018-07-01T05:34:17.232Z,28.29
2018-07-01T05:34:48.428Z,28.55
2018-07-01T05:35:19.708Z,28.48
2018-07-01T05:35:51.161Z,28.33
2018-07-01T05:36:22.352Z,28.10
2018-07-01T05:36:53.533Z,28.18
2018-07-01T05:37:24.772Z,27.87
2018-07-01T05:37:56.009Z,27.81
2018-07-01T05:38:27.289Z,27.74
2018-07-01T05:38:58.516Z,27.81
2018-07-01T05:39:29.769Z,27.95
2018-07-01T05:40:00.952Z,28.11
2018-07-01T05:40:32.137Z,28.15
2018-07-01T05:41:03.437Z,28.30
2018-07-01T05:41:34.628Z,28.47
2018-07-01T05:42:05.840Z,28.55
2018-07-01T05:42:37.022Z,28.55
2018-07-01T05:43:08.262Z,28.56
2018-07-01T05:43:39.461Z,28.50
2018-07-01T05:44:10.644Z,28.48
2018-07-01T05:44:41.831Z,28.52
2018-07-01T05:45:13.066Z,28.45
2018-07-01T05:45:44.258Z,28.40
2018-07-01T05:46:15.490Z,28.32
2018-07-01T05:46:46.681Z,28.20
2018-07-01T05:47:17.869Z,28.11
2018-07-01T05:47:49.096Z,28.10
2018-07-01T05:48:20.292Z,28.02
2018-07-01T05:48:51.473Z,27.92
2018-07-01T05:49:22.678Z,27.78
2018-07-01T05:49:53.873Z,27.79
2018-07-01T05:50:25.054Z,27.81
2018-07-01T05:50:56.256Z,27.78
2018-07-01T05:51:27.550Z,27.74
2018-07-01T05:51:58.802Z,27.75
2018-07-01T05:52:29.999Z,27.63
2018-07-01T05:53:01.201Z,27.27
2018-07-01T05:53:32.433Z,27.04
2018-07-01T05:54:03.667Z,26.85
2018-07-01T05:54:34.885Z,26.63
2018-07-01T05:55:06.069Z,26.44
2018-07-01T05:55:37.252Z,26.07
2018-07-01T05:56:08.433Z,25.95
2018-07-01T05:56:39.683Z,25.99
2018-07-01T05:57:10.931Z,26.06
2018-07-01T05:57:42.132Z,26.16
2018-07-01T05:58:13.307Z,26.18
2018-07-01T05:58:44.494Z,26.01
2018-07-01T05:59:15.727Z,25.96
2018-07-01T05:59:46.908Z,25.93
2018-07-01T06:00:18.090Z,25.90
2018-07-01T06:00:49.341Z,25.97
2018-07-01T06:01:20.565Z,26.07
2018-07-01T06:01:51.784Z,26.17
2018-07-01T06:02:23.016Z,26.21
2018-07-01T06:02:54.209Z,26.33
2018-07-01T06:03:26.567Z,26.31
2018-07-01T06:03:57.764Z,26.30
2018-07-01T06:04:29.016Z,26.39
2018-07-01T06:05:00.212Z,26.41
2018-07-01T06:05:31.441Z,26.32
2018-07-01T06:06:02.682Z,26.18
2018-07-01T06:06:33.961Z,26.01
2018-07-01T06:07:05.163Z,25.97
2018-07-01T06:07:36.384Z,26.06
2018-07-01T06:08:07.636Z,26.14
2018-07-01T06:08:38.888Z,26.13
2018-07-01T06:09:10.088Z,26.02
2018-07-01T06:09:41.325Z,25.84
2018-07-01T06:10:12.534Z,25.69
2018-07-01T06:10:43.721Z,25.75
2018-07-01T06:11:14.909Z,25.76
2018-07-01T06:11:46.140Z,25.79
2018-07-01T06:12:17.342Z,25.87
2018-07-01T06:12:48.553Z,25.86
2018-07-01T06:13:19.821Z,25.84
2018-07-01T06:13:51.083Z,25.94
2018-07-01T06:14:22.269Z,26.09
2018-07-01T06:14:53.500Z,26.09
2018-07-01T06:15:24.696Z,25.38
2018-07-01T06:15:55.898Z,26.15
2018-07-01T06:16:27.117Z,26.07
2018-07-01T06:16:58.386Z,26.00
2018-07-01T06:17:29.693Z,25.88
2018-07-01T06:18:00.946Z,25.87
2018-07-01T06:18:32.143Z,25.89
2018-07-01T06:19:03.324Z,25.92
2018-07-01T06:19:34.557Z,25.84
2018-07-01T06:20:05.753Z,25.89
2018-07-01T06:20:36.944Z,25.95
2018-07-01T06:21:08.189Z,26.08
2018-07-01T06:21:39.386Z,26.20
2018-07-01T06:22:11.650Z,26.14
2018-07-01T06:22:42.885Z,26.11
2018-07-01T06:23:14.066Z,26.41
2018-07-01T06:23:45.253Z,26.55
2018-07-01T06:24:16.437Z,26.69
2018-07-01T06:24:47.608Z,26.78
2018-07-01T06:25:18.917Z,26.65
2018-07-01T06:25:50.109Z,26.68
2018-07-01T06:26:21.280Z,26.65
2018-07-01T06:26:52.518Z,26.65
2018-07-01T06:27:23.740Z,26.60
2018-07-01T06:27:54.969Z,26.52
2018-07-01T06:28:26.210Z,26.33
2018-07-01T06:28:57.437Z,26.30
2018-07-01T06:29:28.664Z,26.39
2018-07-01T06:29:59.899Z,26.46
2018-07-01T06:30:31.118Z,26.45
2018-07-01T06:31:02.390Z,26.48
2018-07-01T06:31:33.770Z,26.58
2018-07-01T06:32:04.969Z,26.53
2018-07-01T06:32:36.229Z,26.42
2018-07-01T06:33:07.442Z,26.31
2018-07-01T06:33:38.638Z,26.27
2018-07-01T06:34:09.865Z,26.30
2018-07-01T06:34:41.886Z,26.29
2018-07-01T06:35:13.117Z,26.27
2018-07-01T06:35:44.380Z,26.31
2018-07-01T06:36:15.617Z,26.35
2018-07-01T06:36:46.857Z,26.42
2018-07-01T06:37:18.102Z,26.51
2018-07-01T06:37:49.294Z,26.63
2018-07-01T06:38:20.480Z,26.67
2018-07-01T06:38:51.652Z,26.64
2018-07-01T06:39:22.897Z,26.75
2018-07-01T06:39:54.301Z,26.76
2018-07-01T06:40:25.581Z,26.74
2018-07-01T06:40:56.791Z,26.76
2018-07-01T06:41:28.021Z,26.64
2018-07-01T06:41:59.298Z,26.55
2018-07-01T06:42:30.524Z,26.63
2018-07-01T06:43:01.712Z,26.58
2018-07-01T06:43:32.901Z,26.54
2018-07-01T06:44:04.155Z,26.59
2018-07-01T06:44:35.386Z,26.68
2018-07-01T06:45:06.585Z,26.59
2018-07-01T06:45:37.796Z,26.58
2018-07-01T06:46:09.213Z,26.62
2018-07-01T06:46:40.403Z,26.70
2018-07-01T06:47:11.583Z,26.76
2018-07-01T06:47:42.779Z,26.71
2018-07-01T06:48:13.980Z,26.69
2018-07-01T06:48:45.833Z,26.70
2018-07-01T06:49:17.081Z,26.76
2018-07-01T06:49:48.322Z,26.77
2018-07-01T06:50:19.508Z,26.82
2018-07-01T06:50:50.684Z,26.88
2018-07-01T06:51:21.860Z,26.88
2018-07-01T06:51:53.098Z,26.81
2018-07-01T06:52:24.289Z,26.65